Time;durP1;ratioP1;P1;durP2;ratioP2;P2;SDS_P1;SDS_P2;PMS_P1;PMS_P2;Temp;Humidity;BMP_temperature;BMP_pressure;BME280_temperature;BME280_humidity;BME280_pressure;Samples;Min_cycle;Max_cycle;Signal;HPM_P1;HPM_P2
2023/08/26 00:02:12;;;;;;;4.18;2.10;;;;;;;25.99;67.16;100494.50;5029215;27;96837;-65
2023/08/26 00:04:39;;;;;;;2.97;1.50;;;;;;;25.85;67.96;100497.81;5028437;27;96884;-65
2023/08/26 00:07:06;;;;;;;2.83;1.60;;;;;;;25.85;67.49;100484.28;5030255;27;98955;-64
2023/08/26 00:09:34;;;;;;;4.38;1.48;;;;;;;25.70;67.62;100477.75;5032436;27;98901;-64
2023/08/26 00:12:00;;;;;;;4.47;1.90;;;;;;;25.70;67.80;100466.91;5031619;27;96912;-65
2023/08/26 00:14:26;;;;;;;2.03;1.70;;;;;;;25.80;67.67;100460.38;5032738;27;96789;-64
2023/08/26 00:16:53;;;;;;;4.88;2.35;;;;;;;25.82;67.36;100462.94;5031093;27;98893;-64
2023/08/26 00:19:20;;;;;;;1.50;1.40;;;;;;;25.59;68.08;100472.59;5029725;27;99102;-64
2023/08/26 00:21:46;;;;;;;2.58;1.42;;;;;;;25.75;67.44;100480.81;5032161;27;96814;-64
2023/08/26 00:24:12;;;;;;;3.92;1.40;;;;;;;25.80;67.01;100487.44;5030241;27;97203;-65
2023/08/26 00:26:40;;;;;;;2.28;1.38;;;;;;;25.84;67.04;100479.88;5028938;27;102127;-65
2023/08/26 00:29:06;;;;;;;2.30;1.45;;;;;;;25.92;66.15;100473.69;5029911;27;102368;-65
2023/08/26 00:31:33;;;;;;;1.55;1.45;;;;;;;25.88;66.58;100467.72;5029901;27;96976;-65
2023/08/26 00:34:02;;;;;;;2.88;1.50;;;;;;;25.84;66.36;100465.50;5020999;27;97675;-66
2023/08/26 00:36:30;;;;;;;2.85;1.58;;;;;;;25.79;66.91;100466.84;5028633;27;99078;-66
2023/08/26 00:38:56;;;;;;;1.98;1.63;;;;;;;26.02;65.63;100471.69;5028119;27;98790;-66
2023/08/26 00:41:23;;;;;;;2.03;1.60;;;;;;;25.75;66.73;100465.44;5026788;27;96858;-66
2023/08/26 00:43:51;;;;;;;4.72;1.67;;;;;;;26.14;65.29;100471.25;5023523;27;96972;-66
2023/08/26 00:46:17;;;;;;;2.00;1.65;;;;;;;26.24;64.41;100471.19;5018265;27;98239;-66
2023/08/26 00:48:44;;;;;;;4.97;1.65;;;;;;;26.20;64.70;100469.75;5022580;27;97926;-66
2023/08/26 00:51:11;;;;;;;2.38;1.60;;;;;;;26.17;64.66;100470.09;5021329;27;96826;-67
2023/08/26 00:53:38;;;;;;;4.38;1.50;;;;;;;26.20;64.37;100477.88;5025058;27;97629;-66
2023/08/26 00:56:05;;;;;;;4.13;1.58;;;;;;;26.24;64.45;100473.88;5025516;27;98852;-66
2023/08/26 00:58:32;;;;;;;1.75;1.52;;;;;;;26.18;64.59;100471.81;5023837;27;99155;-66
2023/08/26 01:01:00;;;;;;;2.28;1.60;;;;;;;26.26;64.36;100463.72;5024047;27;98537;-66
2023/08/26 01:03:27;;;;;;;4.40;1.67;;;;;;;26.37;64.12;100463.47;5025330;27;97019;-66
2023/08/26 01:05:53;;;;;;;2.80;1.55;;;;;;;26.20;64.16;100465.19;5022538;27;99131;-65
2023/08/26 01:08:21;;;;;;;2.63;1.55;;;;;;;26.32;63.42;100471.19;5020873;27;99528;-65
2023/08/26 01:11:00;;;;;;;2.45;1.67;;;;;;;25.99;65.08;100466.63;5029095;27;99175;-65
2023/08/26 01:13:33;;;;;;;2.60;1.60;;;;;;;26.01;65.00;100460.00;5027756;27;96973;-65
2023/08/26 01:16:03;;;;;;;6.78;1.88;;;;;;;25.98;65.10;100454.09;5026995;27;100287;-66
2023/08/26 01:18:30;;;;;;;1.90;1.50;;;;;;;25.96;65.19;100458.78;5025482;27;99545;-66
2023/08/26 01:20:56;;;;;;;2.78;1.50;;;;;;;25.89;65.71;100461.28;5030403;27;96789;-66
2023/08/26 01:23:35;;;;;;;3.22;1.20;;;;;;;25.99;65.05;100459.31;5025969;27;100224;-66
2023/08/26 01:26:01;;;;;;;3.60;1.67;;;;;;;26.00;65.54;100468.28;5026758;27;99041;-66
2023/08/26 01:28:28;;;;;;;1.70;1.60;;;;;;;25.93;65.38;100478.09;5029856;27;98822;-66
2023/08/26 01:30:56;;;;;;;2.30;1.40;;;;;;;25.75;66.18;100478.13;5028459;27;97465;-66
2023/08/26 01:33:27;;;;;;;2.88;1.23;;;;;;;25.82;65.55;100462.09;5031776;27;96862;-65
2023/08/26 01:36:04;;;;;;;4.88;1.50;;;;;;;25.92;65.16;100463.69;5030458;27;100555;-64
2023/08/26 01:38:31;;;;;;;11.07;1.77;;;;;;;25.88;64.51;100469.56;5026862;27;98997;-65
2023/08/26 01:41:02;;;;;;;5.03;1.80;;;;;;;25.73;65.00;100459.31;5028316;27;96787;-65
2023/08/26 01:43:30;;;;;;;11.07;1.70;;;;;;;25.95;63.94;100459.81;5025666;27;97424;-64
2023/08/26 01:45:57;;;;;;;2.95;1.40;;;;;;;25.76;64.71;100456.31;5029957;27;99141;-64
2023/08/26 01:48:23;;;;;;;1.80;1.55;;;;;;;25.80;65.00;100462.25;5030304;27;98779;-65
2023/08/26 01:50:49;;;;;;;3.33;2.13;;;;;;;25.78;64.68;100451.59;5025222;27;97403;-65
2023/08/26 01:53:16;;;;;;;5.68;1.38;;;;;;;25.85;64.15;100451.81;5024424;27;97159;-64
2023/08/26 01:55:42;;;;;;;4.25;2.00;;;;;;;25.85;64.32;100453.66;5026260;27;100111;-65
2023/08/26 01:58:10;;;;;;;2.50;1.75;;;;;;;25.50;65.05;100446.44;5027418;27;98602;-64
2023/08/26 02:00:36;;;;;;;4.65;1.80;;;;;;;25.72;64.40;100449.53;5022507;27;97248;-64
2023/08/26 02:03:03;;;;;;;3.75;1.70;;;;;;;25.62;64.81;100443.34;5021670;27;97613;-64
2023/08/26 02:05:29;;;;;;;4.63;1.58;;;;;;;25.56;65.00;100438.53;5019720;27;99307;-64
2023/08/26 02:07:55;;;;;;;7.88;1.88;;;;;;;25.52;65.75;100436.31;5022827;27;98987;-64
2023/08/26 02:10:22;;;;;;;3.90;1.67;;;;;;;25.64;64.80;100441.34;5025777;27;97855;-64
2023/08/26 02:12:48;;;;;;;1.60;1.50;;;;;;;25.64;65.01;100440.50;5026722;27;97887;-64
2023/08/26 02:15:16;;;;;;;3.70;1.60;;;;;;;25.46;66.12;100443.22;5024558;27;99067;-65
2023/08/26 02:17:42;;;;;;;5.25;1.73;;;;;;;25.34;66.56;100434.47;5028751;27;100934;-65
2023/08/26 02:20:09;;;;;;;4.85;1.90;;;;;;;25.50;65.96;100436.47;5025993;27;96888;-66
2023/08/26 02:22:36;;;;;;;7.18;1.58;;;;;;;25.46;66.34;100432.41;5027913;27;96916;-65
2023/08/26 02:25:03;;;;;;;1.83;1.65;;;;;;;25.55;66.37;100422.47;5028676;27;99041;-66
2023/08/26 02:27:29;;;;;;;4.88;1.77;;;;;;;25.54;65.86;100420.75;5026771;27;99018;-65
2023/08/26 02:29:55;;;;;;;5.57;2.00;;;;;;;25.51;65.82;100418.38;5030748;27;97681;-65
2023/08/26 02:32:23;;;;;;;2.70;2.10;;;;;;;25.30;66.27;100425.00;5031627;27;96832;-65
2023/08/26 02:34:52;;;;;;;4.47;1.67;;;;;;;25.26;66.75;100425.47;5030642;27;99477;-65
2023/08/26 02:37:18;;;;;;;4.28;2.03;;;;;;;25.31;66.49;100417.72;5029643;27;97906;-65
2023/08/26 02:39:45;;;;;;;5.32;2.08;;;;;;;25.23;67.00;100415.81;5032537;27;97235;-65
2023/08/26 02:42:12;;;;;;;5.03;2.03;;;;;;;25.28;66.50;100399.94;5028467;27;96944;-65
2023/08/26 02:44:38;;;;;;;4.78;1.60;;;;;;;25.24;66.46;100400.44;5025963;27;99162;-64
2023/08/26 02:47:05;;;;;;;3.33;1.90;;;;;;;24.96;67.51;100403.22;5025331;27;100177;-65
2023/08/26 02:49:35;;;;;;;3.38;1.60;;;;;;;25.22;66.90;100399.72;5030113;27;96822;-64
2023/08/26 02:52:02;;;;;;;4.78;2.30;;;;;;;25.34;66.33;100384.94;5030402;27;98703;-64
2023/08/26 02:54:28;;;;;;;5.25;1.98;;;;;;;25.26;66.56;100393.03;5022987;27;98917;-64
2023/08/26 02:56:56;;;;;;;3.80;1.83;;;;;;;25.16;67.17;100384.13;5026693;27;96923;-63
2023/08/26 02:59:22;;;;;;;4.68;2.40;;;;;;;25.13;67.55;100382.63;5026368;27;96820;-64
2023/08/26 03:01:58;;;;;;;2.90;1.83;;;;;;;25.24;67.08;100389.63;5025506;27;96980;-64
2023/08/26 03:04:24;;;;;;;10.18;2.00;;;;;;;25.21;67.14;100385.34;5022514;27;98962;-65
2023/08/26 03:06:52;;;;;;;3.08;1.85;;;;;;;25.24;67.00;100384.22;5026787;27;100258;-64
2023/08/26 03:09:18;;;;;;;4.53;2.05;;;;;;;24.95;68.21;100393.41;5029493;27;96835;-64
2023/08/26 03:11:45;;;;;;;3.95;2.10;;;;;;;25.09;67.57;100401.97;5031777;27;97298;-64
2023/08/26 03:14:12;;;;;;;5.15;2.33;;;;;;;25.28;66.70;100409.91;5028332;27;99613;-64
2023/08/26 03:16:40;;;;;;;8.07;2.33;;;;;;;25.27;67.31;100416.34;5025152;27;99376;-64
2023/08/26 03:19:07;;;;;;;4.05;1.60;;;;;;;25.36;66.92;100416.25;5026156;27;97701;-64
2023/08/26 03:21:33;;;;;;;3.13;2.20;;;;;;;25.28;67.05;100423.44;5026674;27;97095;-64
2023/08/26 03:24:01;;;;;;;4.50;1.98;;;;;;;25.12;67.57;100423.31;5028688;27;98190;-64
2023/08/26 03:26:27;;;;;;;3.30;2.10;;;;;;;25.14;67.83;100432.13;5023303;27;97543;-65
2023/08/26 03:28:53;;;;;;;5.25;1.98;;;;;;;25.33;66.91;100429.25;5029268;27;97901;-64
2023/08/26 03:31:20;;;;;;;7.85;2.20;;;;;;;25.23;67.32;100432.03;5027082;27;96936;-64
2023/08/26 03:33:46;;;;;;;4.13;2.10;;;;;;;25.33;66.79;100427.41;5019591;27;98265;-65
2023/08/26 03:36:12;;;;;;;3.78;2.17;;;;;;;25.34;66.85;100433.63;5023706;27;99275;-65
2023/08/26 03:38:39;;;;;;;7.32;2.65;;;;;;;25.09;67.84;100419.06;5022242;27;96950;-66
2023/08/26 03:41:07;;;;;;;2.63;1.90;;;;;;;25.04;67.94;100398.91;5025922;27;96923;-65
2023/08/26 03:43:34;;;;;;;5.63;1.73;;;;;;;25.06;68.34;100407.72;5025032;27;98987;-67
2023/08/26 03:46:03;;;;;;;3.95;2.10;;;;;;;25.17;67.71;100404.75;5026023;27;98728;-65
2023/08/26 03:48:29;;;;;;;4.82;2.20;;;;;;;25.21;67.67;100403.44;5025261;27;99598;-65
2023/08/26 03:50:57;;;;;;;6.05;2.47;;;;;;;25.19;67.37;100403.63;5029933;27;96816;-65
2023/08/26 03:53:24;;;;;;;4.93;2.65;;;;;;;25.20;67.14;100404.47;5023640;27;99065;-65
2023/08/26 03:55:50;;;;;;;5.95;2.30;;;;;;;25.25;67.63;100412.94;5027341;27;98843;-65
2023/08/26 03:58:18;;;;;;;4.47;2.38;;;;;;;25.28;67.32;100412.63;5023015;27;97397;-65
2023/08/26 04:00:45;;;;;;;3.88;2.10;;;;;;;25.22;67.30;100407.84;5018485;27;96849;-65
2023/08/26 04:03:11;;;;;;;4.70;2.35;;;;;;;25.12;67.81;100420.59;5028779;27;101204;-65
2023/08/26 04:05:38;;;;;;;6.70;2.67;;;;;;;24.94;68.57;100412.53;5024546;27;98786;-65
2023/08/26 04:08:05;;;;;;;7.03;2.65;;;;;;;24.74;69.38;100414.47;5024602;27;97000;-64
2023/08/26 04:10:31;;;;;;;6.10;2.33;;;;;;;24.83;69.16;100429.75;5030435;27;96908;-64
2023/08/26 04:13:17;;;;;;;8.40;2.60;;;;;;;24.65;69.62;100425.34;5026761;27;99002;-64
2023/08/26 04:15:45;;;;;;;4.13;2.30;;;;;;;24.85;68.81;100416.09;5023231;27;97870;-64
2023/08/26 04:18:11;;;;;;;4.47;2.40;;;;;;;24.74;69.86;100400.97;5028136;27;96723;-65
2023/08/26 04:20:38;;;;;;;6.93;2.58;;;;;;;24.96;69.24;100397.81;5020317;27;98370;-65
2023/08/26 04:23:04;;;;;;;5.32;2.42;;;;;;;24.76;69.43;100388.13;5028617;27;99358;-66
2023/08/26 04:25:31;;;;;;;4.70;2.53;;;;;;;24.97;68.68;100396.81;5026530;27;98036;-67
2023/08/26 04:27:57;;;;;;;6.90;2.80;;;;;;;25.05;68.36;100396.06;5024951;27;96911;-67
2023/08/26 04:30:23;;;;;;;6.82;2.67;;;;;;;25.06;68.47;100392.34;5026763;27;97157;-67
2023/08/26 04:32:51;;;;;;;7.78;3.33;;;;;;;25.01;68.69;100400.06;5024572;27;99562;-66
2023/08/26 04:35:18;;;;;;;5.55;3.05;;;;;;;25.14;68.83;100415.91;5025563;27;98894;-68
2023/08/26 04:37:44;;;;;;;5.65;2.60;;;;;;;25.05;68.85;100411.41;5027481;27;96707;-66
2023/08/26 04:40:12;;;;;;;3.85;2.95;;;;;;;25.12;68.76;100426.00;5023079;27;97496;-66
2023/08/26 04:42:39;;;;;;;9.48;4.20;;;;;;;24.94;70.88;100429.56;5027944;27;98173;-65
2023/08/26 04:45:06;;;;;;;8.95;2.80;;;;;;;25.23;69.44;100426.63;5028665;27;99169;-65
2023/08/26 04:47:33;;;;;;;6.97;4.20;;;;;;;25.05;70.48;100443.84;5027198;27;96760;-65
2023/08/26 04:50:01;;;;;;;8.63;3.75;;;;;;;25.09;70.77;100451.50;5026745;27;97718;-65
2023/08/26 04:52:27;;;;;;;5.38;3.15;;;;;;;25.26;70.26;100452.50;5025821;27;99365;-66
2023/08/26 04:54:56;;;;;;;8.98;4.68;;;;;;;25.00;71.01;100452.44;5026947;27;99026;-66
2023/08/26 04:57:23;;;;;;;5.90;3.05;;;;;;;25.13;70.83;100438.53;5025524;27;101001;-66
2023/08/26 04:59:49;;;;;;;11.43;6.78;;;;;;;25.20;70.92;100436.91;5022068;27;97729;-66
2023/08/26 05:02:16;;;;;;;12.80;7.20;;;;;;;25.00;71.41;100437.06;5026895;27;99002;-66
2023/08/26 05:04:44;;;;;;;7.15;3.35;;;;;;;25.24;71.24;100449.09;5026468;27;99270;-66
2023/08/26 05:07:12;;;;;;;5.45;3.00;;;;;;;25.20;71.69;100448.59;5028476;27;97038;-66
2023/08/26 05:09:38;;;;;;;7.78;3.03;;;;;;;25.32;71.72;100450.03;5028486;27;98701;-66
2023/08/26 05:12:05;;;;;;;3.97;3.00;;;;;;;25.10;72.78;100442.38;5024907;27;99246;-66
2023/08/26 05:14:32;;;;;;;6.55;3.28;;;;;;;25.29;71.63;100436.81;5034330;27;99068;-66
2023/08/26 05:16:58;;;;;;;5.85;3.10;;;;;;;25.26;72.24;100442.53;5026481;27;97070;-66
2023/08/26 05:19:24;;;;;;;5.25;2.80;;;;;;;25.35;71.76;100444.28;5021486;27;96902;-65
2023/08/26 05:21:51;;;;;;;13.98;5.22;;;;;;;25.10;72.56;100450.50;5025637;27;97806;-65
2023/08/26 05:24:18;;;;;;;9.07;4.35;;;;;;;25.23;72.55;100445.53;5026258;27;98836;-65
2023/08/26 05:26:45;;;;;;;7.60;2.80;;;;;;;25.22;72.89;100451.97;5023556;27;97011;-66
2023/08/26 05:29:11;;;;;;;6.43;2.75;;;;;;;25.20;72.99;100454.00;5023173;27;97599;-66
2023/08/26 05:31:38;;;;;;;8.32;3.25;;;;;;;25.08;73.96;100449.78;5023567;27;99495;-66
2023/08/26 05:34:04;;;;;;;12.88;8.88;;;;;;;25.22;73.36;100461.91;5024693;27;97842;-66
2023/08/26 05:36:30;;;;;;;7.30;3.42;;;;;;;25.25;73.41;100469.72;5024387;27;97610;-66
2023/08/26 05:38:57;;;;;;;4.15;2.88;;;;;;;25.32;73.55;100481.63;5021863;27;97618;-66
2023/08/26 05:41:24;;;;;;;7.75;3.38;;;;;;;25.34;73.67;100488.56;5027950;27;102009;-66
2023/08/26 05:43:51;;;;;;;4.93;3.08;;;;;;;25.12;74.66;100488.19;5029019;27;99227;-65
2023/08/26 05:46:17;;;;;;;8.57;3.35;;;;;;;25.44;73.53;100493.91;5028084;27;96942;-66
2023/08/26 05:48:43;;;;;;;5.90;3.22;;;;;;;25.53;73.02;100487.56;5028816;27;96813;-66
2023/08/26 05:51:09;;;;;;;8.18;3.38;;;;;;;25.59;73.26;100494.25;5025742;27;99044;-65
2023/08/26 05:53:36;;;;;;;7.85;3.70;;;;;;;25.60;73.46;100499.47;5028036;27;98859;-66
2023/08/26 05:56:02;;;;;;;6.25;3.30;;;;;;;25.63;73.43;100493.75;5031293;27;97549;-66
2023/08/26 05:58:29;;;;;;;7.82;4.07;;;;;;;25.50;74.14;100498.69;5028494;27;97304;-66
2023/08/26 06:00:55;;;;;;;5.10;3.20;;;;;;;25.68;73.86;100504.94;5028391;27;98305;-66
2023/08/26 06:03:21;;;;;;;6.10;3.47;;;;;;;25.74;72.98;100509.72;5028240;27;99437;-66
2023/08/26 06:05:51;;;;;;;6.70;3.40;;;;;;;25.64;73.54;100518.97;5029645;27;97935;-68
2023/08/26 06:08:18;;;;;;;6.55;3.17;;;;;;;25.67;74.12;100518.63;5030950;27;96941;-67
2023/08/26 06:10:45;;;;;;;11.68;3.35;;;;;;;25.74;74.11;100523.25;5031987;27;98325;-69
2023/08/26 06:13:12;;;;;;;4.15;3.22;;;;;;;25.90;73.34;100532.53;5028384;27;100340;-66
2023/08/26 06:15:39;;;;;;;9.48;3.70;;;;;;;25.96;72.84;100548.13;5031263;27;96844;-66
2023/08/26 06:18:06;;;;;;;5.55;3.60;;;;;;;25.82;73.33;100544.13;5021581;27;98475;-66
2023/08/26 06:20:32;;;;;;;5.53;4.20;;;;;;;25.91;72.74;100548.63;5026102;27;99456;-66
2023/08/26 06:23:00;;;;;;;5.32;3.47;;;;;;;25.84;73.48;100543.97;5024604;27;98951;-67
2023/08/26 06:25:26;;;;;;;4.30;3.55;;;;;;;26.08;72.15;100541.44;5025413;27;97723;-66
2023/08/26 06:27:53;;;;;;;6.20;3.55;;;;;;;26.23;71.54;100520.06;5027527;27;96906;-66
2023/08/26 06:30:19;;;;;;;5.90;3.67;;;;;;;26.34;70.60;100504.41;5023442;27;99386;-66
2023/08/26 06:32:47;;;;;;;8.18;3.88;;;;;;;26.21;71.39;100498.53;5030627;27;99233;-67
2023/08/26 06:35:13;;;;;;;8.65;4.18;;;;;;;26.21;71.83;100506.66;5026275;27;97618;-67
2023/08/26 06:37:40;;;;;;;4.97;3.92;;;;;;;26.23;72.11;100510.06;5026819;27;99015;-67
2023/08/26 06:40:07;;;;;;;9.93;4.90;;;;;;;26.22;72.15;100521.91;5025481;27;99951;-67
2023/08/26 06:42:34;;;;;;;6.30;3.72;;;;;;;26.19;72.36;100528.47;5020458;27;98911;-67
2023/08/26 06:45:00;;;;;;;11.63;3.80;;;;;;;26.14;72.83;100530.81;5027589;27;98779;-67
2023/08/26 06:47:26;;;;;;;5.05;3.60;;;;;;;26.11;73.36;100541.13;5032753;27;96838;-67
2023/08/26 06:49:54;;;;;;;10.10;3.72;;;;;;;26.34;72.61;100547.75;5028396;27;99101;-66
2023/08/26 06:52:21;;;;;;;11.95;4.25;;;;;;;26.11;73.52;100546.56;5030171;27;98949;-66
2023/08/26 06:54:47;;;;;;;6.63;3.65;;;;;;;26.28;72.83;100548.38;5030339;27;97532;-66
2023/08/26 06:57:13;;;;;;;6.65;3.80;;;;;;;26.29;72.31;100555.50;5026991;27;96837;-66
2023/08/26 06:59:40;;;;;;;6.95;4.15;;;;;;;26.22;72.93;100557.13;5025379;27;98914;-66
2023/08/26 07:02:06;;;;;;;7.22;4.15;;;;;;;26.28;73.10;100542.97;5025277;27;99194;-66
2023/08/26 07:04:32;;;;;;;6.30;3.92;;;;;;;26.12;72.96;100559.09;5027964;27;96926;-66
2023/08/26 07:07:00;;;;;;;5.45;3.65;;;;;;;26.26;72.47;100563.09;5023917;27;98907;-66
2023/08/26 07:09:26;;;;;;;9.20;3.78;;;;;;;26.19;73.37;100566.41;5025227;27;98956;-65
2023/08/26 07:11:53;;;;;;;6.70;4.40;;;;;;;26.11;72.98;100562.81;5020632;27;98978;-66
2023/08/26 07:14:19;;;;;;;11.25;4.47;;;;;;;26.31;72.47;100556.19;5022384;27;97839;-66
2023/08/26 07:16:45;;;;;;;7.50;4.00;;;;;;;26.42;72.34;100558.63;5021910;27;96992;-67
2023/08/26 07:19:12;;;;;;;6.97;4.35;;;;;;;26.53;71.13;100561.06;5028753;27;99734;-66
2023/08/26 07:21:39;;;;;;;4.68;3.88;;;;;;;26.46;71.06;100554.56;5027321;27;99325;-66
2023/08/26 07:24:07;;;;;;;9.35;4.45;;;;;;;26.79;69.96;100558.28;5028185;27;96839;-67
2023/08/26 07:26:33;;;;;;;6.85;4.13;;;;;;;27.21;68.59;100566.44;5027516;27;97003;-66
2023/08/26 07:29:00;;;;;;;7.50;4.47;;;;;;;27.07;68.16;100567.06;5032533;27;99435;-67
2023/08/26 07:31:26;;;;;;;8.52;4.38;;;;;;;27.12;67.22;100570.13;5032128;27;98747;-67
2023/08/26 07:33:53;;;;;;;9.60;4.40;;;;;;;26.92;68.31;100579.53;5029738;27;98534;-67
2023/08/26 07:36:19;;;;;;;5.72;4.38;;;;;;;26.95;68.48;100576.53;5027156;27;96966;-67
2023/08/26 07:38:45;;;;;;;6.65;4.38;;;;;;;26.87;68.44;100585.44;5026938;27;98955;-65
2023/08/26 07:41:13;;;;;;;8.98;4.07;;;;;;;26.96;68.61;100586.34;5025809;27;99047;-65
2023/08/26 07:43:39;;;;;;;7.82;4.15;;;;;;;26.90;68.88;100587.00;5029782;27;96814;-66
2023/08/26 07:46:06;;;;;;;6.68;4.28;;;;;;;26.65;70.61;100593.31;5030738;27;96884;-66
2023/08/26 07:48:32;;;;;;;9.40;4.30;;;;;;;26.69;70.38;100589.25;5025360;27;99449;-69
2023/08/26 07:50:59;;;;;;;9.15;4.30;;;;;;;26.72;70.48;100583.50;5026409;27;99181;-66
2023/08/26 07:53:25;;;;;;;6.20;3.72;;;;;;;26.69;70.50;100589.25;5028218;27;97526;-66
2023/08/26 07:55:51;;;;;;;8.80;4.18;;;;;;;26.34;72.53;100593.78;5022374;27;99647;-67
2023/08/26 07:58:19;;;;;;;10.65;4.70;;;;;;;26.49;72.08;100602.19;5023251;27;98909;-67
2023/08/26 08:00:46;;;;;;;7.03;4.32;;;;;;;26.66;71.68;100592.28;5025512;27;99356;-67
2023/08/26 08:03:12;;;;;;;8.00;4.85;;;;;;;26.48;72.81;100597.78;5025276;27;97238;-67
2023/08/26 08:05:38;;;;;;;12.52;5.22;;;;;;;26.48;72.58;100585.06;5028053;27;96827;-68
2023/08/26 08:08:05;;;;;;;8.85;5.50;;;;;;;26.38;72.51;100587.06;5021620;27;98945;-67
2023/08/26 08:10:31;;;;;;;7.18;5.30;;;;;;;26.36;72.54;100599.91;5025603;27;99172;-67
2023/08/26 08:12:58;;;;;;;8.32;5.07;;;;;;;26.65;71.61;100594.13;5031280;27;97457;-67
2023/08/26 08:15:26;;;;;;;9.02;5.68;;;;;;;26.75;71.73;100599.44;5028771;27;96863;-69
2023/08/26 08:17:52;;;;;;;8.30;5.50;;;;;;;26.92;71.38;100598.53;5026650;27;99182;-67
2023/08/26 08:20:19;;;;;;;10.25;5.78;;;;;;;26.99;71.86;100602.28;5022845;27;98841;-67
2023/08/26 08:22:46;;;;;;;11.50;5.43;;;;;;;27.07;70.79;100605.03;5030678;27;96842;-67
2023/08/26 08:25:12;;;;;;;7.82;5.97;;;;;;;26.92;71.60;100601.22;5024674;27;97603;-67
2023/08/26 08:27:40;;;;;;;9.00;5.40;;;;;;;27.14;70.62;100600.66;5026735;27;100899;-67
2023/08/26 08:30:08;;;;;;;9.02;5.55;;;;;;;26.82;71.45;100604.06;5028856;27;98810;-67
2023/08/26 08:32:36;;;;;;;9.80;5.65;;;;;;;26.62;72.16;100604.47;5023312;27;98008;-67
2023/08/26 08:35:03;;;;;;;8.10;5.28;;;;;;;26.66;72.17;100600.41;5023544;27;97216;-68
2023/08/26 08:37:30;;;;;;;8.90;5.75;;;;;;;26.97;71.17;100607.03;5023979;27;99348;-67
2023/08/26 08:39:56;;;;;;;7.78;5.90;;;;;;;26.99;71.19;100605.00;5028949;27;99339;-66
2023/08/26 08:42:23;;;;;;;8.20;5.68;;;;;;;26.80;71.51;100606.06;5025441;27;97199;-66
2023/08/26 08:44:51;;;;;;;8.30;4.95;;;;;;;27.01;70.93;100594.00;5024493;27;98726;-66
2023/08/26 08:47:17;;;;;;;8.90;6.00;;;;;;;27.14;69.70;100595.22;5028518;27;99449;-66
2023/08/26 08:49:45;;;;;;;6.68;5.25;;;;;;;27.05;69.78;100601.63;5018939;27;101115;-67
2023/08/26 08:52:12;;;;;;;7.93;5.57;;;;;;;27.34;68.87;100601.22;5028860;27;96837;-67
2023/08/26 08:54:39;;;;;;;6.38;4.50;;;;;;;27.31;68.90;100599.69;5024062;27;101415;-67
2023/08/26 08:57:06;;;;;;;5.65;4.30;;;;;;;27.22;69.08;100594.41;5024660;27;99426;-67
2023/08/26 08:59:35;;;;;;;6.20;4.68;;;;;;;27.19;69.31;100606.44;5018530;27;99359;-67
2023/08/26 09:02:02;;;;;;;5.57;4.20;;;;;;;27.09;69.66;100600.31;5014657;27;100215;-67
2023/08/26 09:04:29;;;;;;;5.75;4.38;;;;;;;27.01;70.33;100594.00;5016575;27;97011;-67
2023/08/26 09:06:57;;;;;;;7.07;4.43;;;;;;;27.33;69.55;100596.81;5021897;27;98976;-67
2023/08/26 09:09:23;;;;;;;6.75;4.82;;;;;;;27.98;67.26;100597.75;5026749;27;98817;-67
2023/08/26 09:11:51;;;;;;;7.35;4.50;;;;;;;28.21;66.54;100599.81;5022785;27;97709;-67
2023/08/26 09:14:17;;;;;;;7.57;4.70;;;;;;;28.34;65.28;100590.13;5028168;27;96828;-68
2023/08/26 09:16:44;;;;;;;5.15;3.30;;;;;;;28.25;64.77;100593.00;5024806;27;99147;-68
2023/08/26 09:19:13;;;;;;;5.55;3.67;;;;;;;28.55;63.79;100597.72;5025249;27;99018;-67
2023/08/26 09:21:41;;;;;;;7.68;3.90;;;;;;;28.53;63.81;100597.03;5022485;27;98648;-67
2023/08/26 09:24:13;;;;;;;5.22;3.70;;;;;;;28.68;62.73;100606.19;5027314;27;98578;-68
2023/08/26 09:26:40;;;;;;;6.47;3.30;;;;;;;28.48;62.44;100604.88;5025370;27;99390;-68
2023/08/26 09:29:12;;;;;;;4.72;3.58;;;;;;;27.93;64.90;100599.28;5024138;27;98764;-67
2023/08/26 09:31:46;;;;;;;6.45;4.53;;;;;;;27.44;66.38;100601.09;5024679;27;99023;-65
2023/08/26 09:34:12;;;;;;;12.68;4.15;;;;;;;27.85;65.21;100599.28;5028775;27;96871;-65
2023/08/26 09:36:40;;;;;;;7.32;4.45;;;;;;;27.87;65.10;100598.09;5024467;27;99007;-65
2023/08/26 09:39:14;;;;;;;10.75;5.63;;;;;;;28.21;61.68;100597.09;5022368;27;99118;-65
2023/08/26 09:41:42;;;;;;;6.47;4.60;;;;;;;28.40;61.01;100604.88;5022250;27;99074;-65
2023/08/26 09:44:09;;;;;;;9.85;5.30;;;;;;;28.96;59.20;100598.44;5028836;27;96914;-65
2023/08/26 09:46:36;;;;;;;10.75;6.50;;;;;;;28.97;57.55;100602.00;5023133;27;99085;-64
2023/08/26 09:49:03;;;;;;;10.48;6.80;;;;;;;29.03;57.96;100601.31;5023660;27;99519;-64
2023/08/26 09:51:31;;;;;;;6.00;5.05;;;;;;;29.30;56.48;100604.41;5028914;27;96806;-64
2023/08/26 09:53:58;;;;;;;8.73;5.72;;;;;;;29.52;54.98;100608.22;5025198;27;97501;-65
2023/08/26 09:56:27;;;;;;;8.40;5.43;;;;;;;28.79;55.78;100608.53;5024734;27;98895;-64
2023/08/26 09:58:55;;;;;;;8.07;5.05;;;;;;;28.47;56.80;100611.31;5021604;27;99552;-65
2023/08/26 10:01:23;;;;;;;9.35;6.28;;;;;;;28.13;58.20;100617.78;5027051;27;97110;-65
2023/08/26 10:03:52;;;;;;;7.65;4.78;;;;;;;27.90;59.52;100607.75;5028656;27;97178;-64
2023/08/26 10:06:22;;;;;;;7.18;5.47;;;;;;;28.74;57.13;100605.50;5019834;27;98110;-65
2023/08/26 10:08:55;;;;;;;8.38;5.15;;;;;;;28.56;57.07;100602.09;5022443;27;99071;-68
2023/08/26 10:11:23;;;;;;;10.90;6.82;;;;;;;29.01;54.41;100606.09;5029078;27;96804;-68
2023/08/26 10:13:52;;;;;;;8.13;6.22;;;;;;;28.85;55.01;100605.13;5026885;27;97172;-67
2023/08/26 10:16:23;;;;;;;9.15;5.90;;;;;;;28.55;56.09;100609.41;5025231;27;99342;-68
2023/08/26 10:18:53;;;;;;;9.43;6.53;;;;;;;28.67;55.71;100614.50;5023486;27;99304;-68
2023/08/26 10:21:21;;;;;;;12.43;8.27;;;;;;;29.05;54.64;100605.56;5024052;27;100583;-67
2023/08/26 10:23:48;;;;;;;13.50;7.80;;;;;;;29.07;54.54;100610.81;5026675;27;96948;-67
2023/08/26 10:26:16;;;;;;;11.93;7.82;;;;;;;28.69;55.29;100609.72;5029088;27;97801;-68
2023/08/26 10:28:43;;;;;;;9.45;7.72;;;;;;;28.73;54.77;100605.66;5022477;27;99343;-67
2023/08/26 10:31:14;;;;;;;9.00;7.40;;;;;;;28.83;55.14;100606.31;5024023;27;96765;-68
2023/08/26 10:34:13;;;;;;;10.32;7.40;;;;;;;29.39;53.50;100597.06;5024438;27;99283;-68
2023/08/26 10:36:41;;;;;;;14.15;7.57;;;;;;;29.61;52.86;100606.25;5018093;27;97951;-65
2023/08/26 10:39:14;;;;;;;11.82;8.40;;;;;;;29.73;52.39;100604.00;5028046;27;99203;-66
2023/08/26 10:41:40;;;;;;;10.60;8.20;;;;;;;29.57;52.48;100605.78;5027755;27;96744;-67
2023/08/26 10:44:07;;;;;;;11.00;8.13;;;;;;;29.39;52.61;100604.38;5020107;27;98852;-67
2023/08/26 10:46:38;;;;;;;11.32;7.35;;;;;;;29.75;51.08;100607.34;5009467;27;99622;-68
2023/08/26 10:49:05;;;;;;;11.75;7.05;;;;;;;29.41;51.32;100591.41;5012555;27;99583;-67
2023/08/26 10:51:35;;;;;;;12.88;6.95;;;;;;;29.00;49.92;100588.91;5015446;27;97439;-67
2023/08/26 10:54:03;;;;;;;9.02;6.47;;;;;;;29.04;50.34;100589.41;5029407;27;97829;-66
2023/08/26 10:56:33;;;;;;;12.23;6.28;;;;;;;28.78;50.31;100581.53;5024759;27;101645;-67
2023/08/26 10:59:03;;;;;;;9.30;6.45;;;;;;;28.80;50.81;100585.78;5030947;27;101473;-67
2023/08/26 11:01:35;;;;;;;14.35;5.97;;;;;;;29.12;48.84;100586.66;5030167;27;96833;-67
2023/08/26 11:04:04;;;;;;;8.82;6.20;;;;;;;29.16;48.87;100585.25;5032634;27;96823;-68
2023/08/26 11:06:37;;;;;;;9.10;6.03;;;;;;;28.67;49.44;100581.88;5032300;27;102059;-67
2023/08/26 11:09:04;;;;;;;9.43;5.22;;;;;;;28.36;49.21;100581.78;5028694;27;98826;-67
2023/08/26 11:11:30;;;;;;;11.02;5.88;;;;;;;28.66;49.20;100577.47;5032619;27;96714;-64
2023/08/26 11:13:57;;;;;;;11.68;6.07;;;;;;;28.78;48.80;100571.50;5026254;27;97033;-64
2023/08/26 11:16:23;;;;;;;9.32;5.68;;;;;;;28.93;48.40;100575.19;5027307;27;99735;-65
2023/08/26 11:18:52;;;;;;;15.90;5.45;;;;;;;29.53;47.87;100581.84;5031199;27;98934;-65
2023/08/26 11:21:21;;;;;;;7.18;5.10;;;;;;;29.47;46.98;100571.69;5032581;27;96777;-64
2023/08/26 11:23:48;;;;;;;7.72;5.18;;;;;;;29.49;45.93;100569.59;5027581;27;97221;-64
2023/08/26 11:26:16;;;;;;;12.95;4.85;;;;;;;29.50;43.99;100583.03;5029384;27;98939;-64